sensor_id;sensor_type;location;lat;lon;timestamp;P1;durP1;ratioP1;P2;durP2;ratioP2
46377;SDS011;32083;47.360;9.650;2023-12-20T05:01:54;17.38;;;11.60;;
46377;SDS011;32083;47.360;9.650;2023-12-20T05:04:22;12.60;;;10.88;;
46377;SDS011;32083;47.360;9.650;2023-12-20T05:06:48;12.23;;;10.85;;
46377;SDS011;32083;47.360;9.650;2023-12-20T05:09:15;13.75;;;11.00;;
46377;SDS011;32083;47.360;9.650;2023-12-20T05:14:45;13.77;;;10.88;;
46377;SDS011;32083;47.360;9.650;2023-12-20T05:17:27;13.63;;;11.27;;
46377;SDS011;32083;47.360;9.650;2023-12-20T05:20:01;15.82;;;10.85;;
46377;SDS011;32083;47.360;9.650;2023-12-20T05:22:35;21.63;;;16.92;;
46377;SDS011;32083;47.360;9.650;2023-12-20T05:25:04;25.73;;;17.20;;
46377;SDS011;32083;47.360;9.650;2023-12-20T05:27:34;15.63;;;12.23;;
46377;SDS011;32083;47.360;9.650;2023-12-20T05:30:03;14.93;;;11.70;;
46377;SDS011;32083;47.360;9.650;2023-12-20T05:32:39;16.48;;;12.88;;
46377;SDS011;32083;47.360;9.650;2023-12-20T05:35:05;21.77;;;12.52;;
46377;SDS011;32083;47.360;9.650;2023-12-20T05:37:32;27.40;;;13.25;;
46377;SDS011;32083;47.360;9.650;2023-12-20T05:39:58;43.55;;;15.82;;
46377;SDS011;32083;47.360;9.650;2023-12-20T05:42:24;41.42;;;16.15;;
46377;SDS011;32083;47.360;9.650;2023-12-20T05:44:50;36.53;;;15.35;;
46377;SDS011;32083;47.360;9.650;2023-12-20T05:47:16;34.60;;;15.65;;
46377;SDS011;32083;47.360;9.650;2023-12-20T05:49:43;32.20;;;14.82;;
46377;SDS011;32083;47.360;9.650;2023-12-20T05:52:09;29.40;;;16.05;;
46377;SDS011;32083;47.360;9.650;2023-12-20T05:54:35;25.10;;;13.27;;
46377;SDS011;32083;47.360;9.650;2023-12-20T05:57:01;25.67;;;14.30;;
46377;SDS011;32083;47.360;9.650;2023-12-20T05:59:27;41.53;;;14.75;;
46377;SDS011;32083;47.360;9.650;2023-12-20T06:01:53;44.90;;;15.90;;
46377;SDS011;32083;47.360;9.650;2023-12-20T06:04:19;48.35;;;17.67;;
46377;SDS011;32083;47.360;9.650;2023-12-20T06:06:45;54.67;;;17.77;;
46377;SDS011;32083;47.360;9.650;2023-12-20T06:09:11;39.58;;;16.02;;
46377;SDS011;32083;47.360;9.650;2023-12-20T06:11:38;57.50;;;20.73;;
46377;SDS011;32083;47.360;9.650;2023-12-20T06:14:04;32.05;;;14.98;;
46377;SDS011;32083;47.360;9.650;2023-12-20T06:16:30;38.88;;;16.23;;
46377;SDS011;32083;47.360;9.650;2023-12-20T06:18:56;26.67;;;12.10;;
46377;SDS011;32083;47.360;9.650;2023-12-20T06:21:22;16.52;;;10.23;;
46377;SDS011;32083;47.360;9.650;2023-12-20T06:23:48;41.78;;;12.52;;
46377;SDS011;32083;47.360;9.650;2023-12-20T06:26:14;19.85;;;9.77;;
46377;SDS011;32083;47.360;9.650;2023-12-20T06:28:40;22.17;;;10.20;;
46377;SDS011;32083;47.360;9.650;2023-12-20T06:31:06;20.75;;;10.30;;
46377;SDS011;32083;47.360;9.650;2023-12-20T06:33:32;16.33;;;8.25;;
46377;SDS011;32083;47.360;9.650;2023-12-20T06:35:58;14.77;;;8.75;;
46377;SDS011;32083;47.360;9.650;2023-12-20T06:38:24;28.38;;;11.43;;
46377;SDS011;32083;47.360;9.650;2023-12-20T06:40:50;30.63;;;13.45;;
46377;SDS011;32083;47.360;9.650;2023-12-20T06:43:16;32.05;;;13.93;;
46377;SDS011;32083;47.360;9.650;2023-12-20T06:45:42;23.08;;;12.63;;
46377;SDS011;32083;47.360;9.650;2023-12-20T06:48:08;24.67;;;12.85;;
46377;SDS011;32083;47.360;9.650;2023-12-20T06:50:37;24.75;;;11.68;;
46377;SDS011;32083;47.360;9.650;2023-12-20T06:53:05;30.90;;;12.90;;
46377;SDS011;32083;47.360;9.650;2023-12-20T06:55:33;25.90;;;10.52;;
46377;SDS011;32083;47.360;9.650;2023-12-20T06:58:01;23.10;;;13.80;;
46377;SDS011;32083;47.360;9.650;2023-12-20T07:00:27;20.27;;;8.68;;
46377;SDS011;32083;47.360;9.650;2023-12-20T07:02:54;18.73;;;9.98;;
46377;SDS011;32083;47.360;9.650;2023-12-20T07:05:20;18.00;;;9.27;;
46377;SDS011;32083;47.360;9.650;2023-12-20T07:07:46;18.75;;;8.77;;
46377;SDS011;32083;47.360;9.650;2023-12-20T07:10:12;14.55;;;4.80;;
46377;SDS011;32083;47.360;9.650;2023-12-20T07:12:38;15.27;;;6.20;;
46377;SDS011;32083;47.360;9.650;2023-12-20T07:15:05;15.88;;;6.82;;
46377;SDS011;32083;47.360;9.650;2023-12-20T07:17:32;23.30;;;7.03;;
46377;SDS011;32083;47.360;9.650;2023-12-20T07:19:58;11.05;;;4.75;;
46377;SDS011;32083;47.360;9.650;2023-12-20T07:22:28;9.73;;;4.45;;
46377;SDS011;32083;47.360;9.650;2023-12-20T07:24:57;13.55;;;5.25;;
46377;SDS011;32083;47.360;9.650;2023-12-20T07:27:24;15.88;;;4.82;;
46377;SDS011;32083;47.360;9.650;2023-12-20T07:29:50;14.25;;;4.65;;
46377;SDS011;32083;47.360;9.650;2023-12-20T07:32:16;8.18;;;4.22;;
46377;SDS011;32083;47.360;9.650;2023-12-20T07:34:44;13.32;;;5.32;;
46377;SDS011;32083;47.360;9.650;2023-12-20T07:37:10;12.00;;;5.50;;
46377;SDS011;32083;47.360;9.650;2023-12-20T07:39:40;17.10;;;4.65;;
46377;SDS011;32083;47.360;9.650;2023-12-20T07:42:06;9.23;;;3.13;;
46377;SDS011;32083;47.360;9.650;2023-12-20T07:44:35;10.00;;;4.03;;
46377;SDS011;32083;47.360;9.650;2023-12-20T07:47:01;8.60;;;4.35;;
46377;SDS011;32083;47.360;9.650;2023-12-20T07:49:27;7.45;;;3.28;;
46377;SDS011;32083;47.360;9.650;2023-12-20T07:51:53;8.93;;;3.55;;
46377;SDS011;32083;47.360;9.650;2023-12-20T07:54:18;9.82;;;3.90;;
46377;SDS011;32083;47.360;9.650;2023-12-20T07:56:46;9.30;;;5.47;;
46377;SDS011;32083;47.360;9.650;2023-12-20T07:59:12;11.80;;;5.28;;
46377;SDS011;32083;47.360;9.650;2023-12-20T08:01:38;10.93;;;4.28;;
46377;SDS011;32083;47.360;9.650;2023-12-20T08:04:04;11.07;;;6.78;;
46377;SDS011;32083;47.360;9.650;2023-12-20T08:06:29;12.43;;;6.13;;
46377;SDS011;32083;47.360;9.650;2023-12-20T08:08:55;13.48;;;8.50;;
46377;SDS011;32083;47.360;9.650;2023-12-20T08:11:21;15.15;;;8.73;;
46377;SDS011;32083;47.360;9.650;2023-12-20T08:13:46;18.10;;;9.27;;
46377;SDS011;32083;47.360;9.650;2023-12-20T08:16:12;14.75;;;10.38;;
46377;SDS011;32083;47.360;9.650;2023-12-20T08:18:38;15.63;;;10.52;;
46377;SDS011;32083;47.360;9.650;2023-12-20T08:21:04;13.95;;;10.32;;
46377;SDS011;32083;47.360;9.650;2023-12-20T08:23:32;17.92;;;12.05;;
46377;SDS011;32083;47.360;9.650;2023-12-20T08:26:03;19.60;;;12.27;;
46377;SDS011;32083;47.360;9.650;2023-12-20T08:30:58;14.68;;;12.20;;
46377;SDS011;32083;47.360;9.650;2023-12-20T08:33:25;16.85;;;12.27;;
46377;SDS011;32083;47.360;9.650;2023-12-20T08:35:51;15.98;;;12.98;;
46377;SDS011;32083;47.360;9.650;2023-12-20T08:38:17;19.85;;;14.50;;
46377;SDS011;32083;47.360;9.650;2023-12-20T08:40:43;17.70;;;15.57;;
46377;SDS011;32083;47.360;9.650;2023-12-20T08:43:10;17.77;;;13.23;;
46377;SDS011;32083;47.360;9.650;2023-12-20T08:45:36;16.27;;;11.93;;
46377;SDS011;32083;47.360;9.650;2023-12-20T08:48:03;18.02;;;12.85;;
46377;SDS011;32083;47.360;9.650;2023-12-20T08:50:29;17.60;;;12.75;;
46377;SDS011;32083;47.360;9.650;2023-12-20T08:52:55;17.55;;;13.07;;
46377;SDS011;32083;47.360;9.650;2023-12-20T08:55:21;15.23;;;12.25;;
46377;SDS011;32083;47.360;9.650;2023-12-20T08:57:47;21.55;;;13.38;;
46377;SDS011;32083;47.360;9.650;2023-12-20T09:00:14;18.08;;;14.68;;
46377;SDS011;32083;47.360;9.650;2023-12-20T09:02:41;16.02;;;12.77;;
46377;SDS011;32083;47.360;9.650;2023-12-20T09:05:07;18.42;;;12.95;;
46377;SDS011;32083;47.360;9.650;2023-12-20T09:07:33;18.75;;;13.50;;
46377;SDS011;32083;47.360;9.650;2023-12-20T09:09:59;18.42;;;14.13;;
46377;SDS011;32083;47.360;9.650;2023-12-20T09:12:24;16.83;;;11.60;;
46377;SDS011;32083;47.360;9.650;2023-12-20T09:14:51;19.60;;;14.00;;
46377;SDS011;32083;47.360;9.650;2023-12-20T09:17:18;18.50;;;13.07;;
46377;SDS011;32083;47.360;9.650;2023-12-20T09:19:44;31.25;;;15.60;;
46377;SDS011;32083;47.360;9.650;2023-12-20T09:22:10;20.15;;;12.35;;
46377;SDS011;32083;47.360;9.650;2023-12-20T09:24:37;16.15;;;12.73;;
46377;SDS011;32083;47.360;9.650;2023-12-20T09:27:06;16.02;;;11.63;;
46377;SDS011;32083;47.360;9.650;2023-12-20T09:29:32;18.15;;;13.75;;
46377;SDS011;32083;47.360;9.650;2023-12-20T09:31:58;17.10;;;13.05;;
46377;SDS011;32083;47.360;9.650;2023-12-20T09:34:24;15.35;;;13.43;;
46377;SDS011;32083;47.360;9.650;2023-12-20T09:36:51;16.35;;;11.85;;
46377;SDS011;32083;47.360;9.650;2023-12-20T09:39:17;16.35;;;12.27;;
46377;SDS011;32083;47.360;9.650;2023-12-20T09:41:59;17.30;;;12.15;;
46377;SDS011;32083;47.360;9.650;2023-12-20T09:44:26;15.32;;;12.52;;
46377;SDS011;32083;47.360;9.650;2023-12-20T09:46:52;14.25;;;12.38;;
46377;SDS011;32083;47.360;9.650;2023-12-20T09:49:21;15.98;;;12.00;;
46377;SDS011;32083;47.360;9.650;2023-12-20T09:51:47;14.18;;;11.90;;
46377;SDS011;32083;47.360;9.650;2023-12-20T09:54:15;14.18;;;11.98;;
46377;SDS011;32083;47.360;9.650;2023-12-20T09:56:45;15.40;;;12.27;;
46377;SDS011;32083;47.360;9.650;2023-12-20T09:59:11;16.63;;;13.00;;
46377;SDS011;32083;47.360;9.650;2023-12-20T10:01:38;21.73;;;15.50;;
46377;SDS011;32083;47.360;9.650;2023-12-20T10:04:06;18.13;;;15.85;;
46377;SDS011;32083;47.360;9.650;2023-12-20T10:06:35;19.45;;;15.35;;
46377;SDS011;32083;47.360;9.650;2023-12-20T10:09:01;18.50;;;14.02;;
46377;SDS011;32083;47.360;9.650;2023-12-20T10:11:27;20.23;;;13.98;;
46377;SDS011;32083;47.360;9.650;2023-12-20T10:13:58;15.57;;;12.65;;
46377;SDS011;32083;47.360;9.650;2023-12-20T10:16:26;17.42;;;12.95;;
46377;SDS011;32083;47.360;9.650;2023-12-20T10:18:53;19.95;;;13.45;;
46377;SDS011;32083;47.360;9.650;2023-12-20T10:21:19;19.38;;;13.48;;
46377;SDS011;32083;47.360;9.650;2023-12-20T10:23:45;17.33;;;13.30;;
46377;SDS011;32083;47.360;9.650;2023-12-20T10:26:18;16.67;;;13.45;;
46377;SDS011;32083;47.360;9.650;2023-12-20T10:28:46;17.58;;;13.88;;
46377;SDS011;32083;47.360;9.650;2023-12-20T10:31:28;17.88;;;13.02;;
46377;SDS011;32083;47.360;9.650;2023-12-20T10:33:58;15.05;;;11.75;;
46377;SDS011;32083;47.360;9.650;2023-12-20T10:36:25;22.85;;;13.80;;
46377;SDS011;32083;47.360;9.650;2023-12-20T10:38:52;18.45;;;14.20;;
46377;SDS011;32083;47.360;9.650;2023-12-20T10:41:19;24.80;;;14.85;;
46377;SDS011;32083;47.360;9.650;2023-12-20T10:43:51;18.52;;;13.73;;
46377;SDS011;32083;47.360;9.650;2023-12-20T10:46:18;18.38;;;14.18;;
46377;SDS011;32083;47.360;9.650;2023-12-20T10:48:45;19.27;;;14.05;;
46377;SDS011;32083;47.360;9.650;2023-12-20T10:51:12;22.70;;;14.60;;
46377;SDS011;32083;47.360;9.650;2023-12-20T10:53:42;18.35;;;14.30;;
46377;SDS011;32083;47.360;9.650;2023-12-20T10:56:11;21.10;;;14.90;;
46377;SDS011;32083;47.360;9.650;2023-12-20T10:58:41;16.15;;;14.18;;
46377;SDS011;32083;47.360;9.650;2023-12-20T11:04:00;19.70;;;14.25;;
46377;SDS011;32083;47.360;9.650;2023-12-20T11:06:45;17.17;;;14.48;;
46377;SDS011;32083;47.360;9.650;2023-12-20T11:17:09;15.70;;;13.43;;
46377;SDS011;32083;47.360;9.650;2023-12-20T11:22:21;16.85;;;15.07;;
46377;SDS011;32083;47.360;9.650;2023-12-20T11:24:52;17.02;;;14.45;;
46377;SDS011;32083;47.360;9.650;2023-12-20T11:27:18;30.48;;;18.02;;
46377;SDS011;32083;47.360;9.650;2023-12-20T11:29:51;23.30;;;16.13;;
46377;SDS011;32083;47.360;9.650;2023-12-20T11:34:53;15.55;;;13.88;;
46377;SDS011;32083;47.360;9.650;2023-12-20T11:37:20;16.48;;;14.27;;
46377;SDS011;32083;47.360;9.650;2023-12-20T11:39:59;17.55;;;13.68;;
46377;SDS011;32083;47.360;9.650;2023-12-20T11:42:44;19.05;;;13.02;;
46377;SDS011;32083;47.360;9.650;2023-12-20T11:45:14;21.17;;;14.10;;
46377;SDS011;32083;47.360;9.650;2023-12-20T11:47:42;17.52;;;13.75;;
46377;SDS011;32083;47.360;9.650;2023-12-20T11:50:11;13.95;;;12.07;;
46377;SDS011;32083;47.360;9.650;2023-12-20T11:52:37;17.55;;;13.52;;
46377;SDS011;32083;47.360;9.650;2023-12-20T11:55:03;15.25;;;12.50;;
46377;SDS011;32083;47.360;9.650;2023-12-20T11:57:32;15.27;;;12.82;;
46377;SDS011;32083;47.360;9.650;2023-12-20T11:59:58;14.68;;;13.15;;
46377;SDS011;32083;47.360;9.650;2023-12-20T12:02:25;16.05;;;12.93;;
46377;SDS011;32083;47.360;9.650;2023-12-20T12:04:51;15.88;;;13.45;;
46377;SDS011;32083;47.360;9.650;2023-12-20T12:07:17;18.10;;;14.25;;
46377;SDS011;32083;47.360;9.650;2023-12-20T12:09:43;21.80;;;15.90;;
46377;SDS011;32083;47.360;9.650;2023-12-20T12:12:09;19.00;;;15.68;;
46377;SDS011;32083;47.360;9.650;2023-12-20T12:14:36;17.13;;;14.68;;
46377;SDS011;32083;47.360;9.650;2023-12-20T12:17:03;18.67;;;16.70;;
46377;SDS011;32083;47.360;9.650;2023-12-20T12:19:29;19.77;;;15.85;;
46377;SDS011;32083;47.360;9.650;2023-12-20T12:22:13;18.45;;;16.48;;
46377;SDS011;32083;47.360;9.650;2023-12-20T12:24:44;19.00;;;15.05;;
46377;SDS011;32083;47.360;9.650;2023-12-20T12:27:12;16.88;;;14.93;;
46377;SDS011;32083;47.360;9.650;2023-12-20T12:29:38;16.95;;;13.88;;
46377;SDS011;32083;47.360;9.650;2023-12-20T12:32:05;15.98;;;14.38;;
46377;SDS011;32083;47.360;9.650;2023-12-20T12:34:34;15.65;;;13.70;;
46377;SDS011;32083;47.360;9.650;2023-12-20T12:37:01;17.25;;;13.02;;
46377;SDS011;32083;47.360;9.650;2023-12-20T12:39:29;21.10;;;12.73;;
46377;SDS011;32083;47.360;9.650;2023-12-20T12:41:55;14.45;;;12.52;;
46377;SDS011;32083;47.360;9.650;2023-12-20T12:44:22;16.48;;;12.75;;
46377;SDS011;32083;47.360;9.650;2023-12-20T12:46:50;14.48;;;11.23;;
46377;SDS011;32083;47.360;9.650;2023-12-20T12:49:18;12.90;;;11.48;;
46377;SDS011;32083;47.360;9.650;2023-12-20T12:51:47;13.40;;;9.93;;
46377;SDS011;32083;47.360;9.650;2023-12-20T12:54:13;11.73;;;8.85;;
46377;SDS011;32083;47.360;9.650;2023-12-20T12:56:41;9.95;;;8.18;;
46377;SDS011;32083;47.360;9.650;2023-12-20T12:59:08;9.57;;;6.68;;
46377;SDS011;32083;47.360;9.650;2023-12-20T13:01:34;7.53;;;5.82;;
46377;SDS011;32083;47.360;9.650;2023-12-20T13:04:00;7.40;;;6.32;;
46377;SDS011;32083;47.360;9.650;2023-12-20T13:06:28;9.10;;;5.53;;
46377;SDS011;32083;47.360;9.650;2023-12-20T13:08:55;10.15;;;8.25;;
46377;SDS011;32083;47.360;9.650;2023-12-20T13:11:21;6.32;;;5.47;;
46377;SDS011;32083;47.360;9.650;2023-12-20T13:13:47;6.30;;;5.28;;
46377;SDS011;32083;47.360;9.650;2023-12-20T13:16:13;5.72;;;4.72;;
46377;SDS011;32083;47.360;9.650;2023-12-20T13:18:41;18.45;;;6.03;;
46377;SDS011;32083;47.360;9.650;2023-12-20T13:21:08;7.65;;;5.10;;
46377;SDS011;32083;47.360;9.650;2023-12-20T13:23:34;9.13;;;3.97;;
46377;SDS011;32083;47.360;9.650;2023-12-20T13:26:01;7.50;;;4.72;;
46377;SDS011;32083;47.360;9.650;2023-12-20T13:28:28;7.85;;;5.82;;
46377;SDS011;32083;47.360;9.650;2023-12-20T13:30:54;6.50;;;4.55;;
46377;SDS011;32083;47.360;9.650;2023-12-20T13:33:20;9.15;;;6.85;;
46377;SDS011;32083;47.360;9.650;2023-12-20T13:35:46;9.85;;;7.40;;
46377;SDS011;32083;47.360;9.650;2023-12-20T13:38:12;6.75;;;6.05;;
46377;SDS011;32083;47.360;9.650;2023-12-20T13:40:39;7.50;;;5.70;;
46377;SDS011;32083;47.360;9.650;2023-12-20T13:43:07;8.38;;;7.05;;
46377;SDS011;32083;47.360;9.650;2023-12-20T13:45:36;9.98;;;6.45;;
46377;SDS011;32083;47.360;9.650;2023-12-20T13:48:03;8.10;;;7.18;;
46377;SDS011;32083;47.360;9.650;2023-12-20T13:50:29;5.40;;;4.90;;
46377;SDS011;32083;47.360;9.650;2023-12-20T13:52:58;5.10;;;4.32;;
46377;SDS011;32083;47.360;9.650;2023-12-20T13:55:24;5.38;;;4.63;;
46377;SDS011;32083;47.360;9.650;2023-12-20T13:57:53;3.60;;;2.80;;
46377;SDS011;32083;47.360;9.650;2023-12-20T14:00:19;3.40;;;2.58;;
46377;SDS011;32083;47.360;9.650;2023-12-20T14:02:45;4.50;;;2.67;;
46377;SDS011;32083;47.360;9.650;2023-12-20T14:05:11;5.50;;;4.22;;
46377;SDS011;32083;47.360;9.650;2023-12-20T14:07:39;5.18;;;4.38;;
46377;SDS011;32083;47.360;9.650;2023-12-20T14:10:05;5.80;;;5.20;;
46377;SDS011;32083;47.360;9.650;2023-12-20T14:12:32;3.97;;;2.55;;
46377;SDS011;32083;47.360;9.650;2023-12-20T14:15:01;5.35;;;3.63;;
46377;SDS011;32083;47.360;9.650;2023-12-20T14:17:27;5.55;;;2.97;;
46377;SDS011;32083;47.360;9.650;2023-12-20T14:19:53;4.28;;;3.00;;
46377;SDS011;32083;47.360;9.650;2023-12-20T14:22:19;3.92;;;3.00;;
46377;SDS011;32083;47.360;9.650;2023-12-20T14:24:46;3.90;;;2.90;;
46377;SDS011;32083;47.360;9.650;2023-12-20T14:27:12;3.63;;;2.80;;
46377;SDS011;32083;47.360;9.650;2023-12-20T14:29:38;2.92;;;2.08;;
46377;SDS011;32083;47.360;9.650;2023-12-20T14:32:04;5.50;;;2.60;;
46377;SDS011;32083;47.360;9.650;2023-12-20T14:34:31;3.50;;;3.00;;
46377;SDS011;32083;47.360;9.650;2023-12-20T14:36:57;4.07;;;2.55;;
46377;SDS011;32083;47.360;9.650;2023-12-20T14:39:22;15.02;;;13.43;;
46377;SDS011;32083;47.360;9.650;2023-12-20T14:41:57;8.32;;;6.55;;
46377;SDS011;32083;47.360;9.650;2023-12-20T14:44:29;4.22;;;2.90;;
46377;SDS011;32083;47.360;9.650;2023-12-20T14:46:54;4.80;;;2.50;;
46377;SDS011;32083;47.360;9.650;2023-12-20T14:49:20;3.60;;;2.05;;
46377;SDS011;32083;47.360;9.650;2023-12-20T14:51:46;2.63;;;2.05;;
46377;SDS011;32083;47.360;9.650;2023-12-20T14:54:13;2.00;;;1.40;;
46377;SDS011;32083;47.360;9.650;2023-12-20T14:56:39;2.40;;;1.50;;
46377;SDS011;32083;47.360;9.650;2023-12-20T14:59:05;4.47;;;1.30;;
46377;SDS011;32083;47.360;9.650;2023-12-20T15:01:31;4.07;;;1.88;;
46377;SDS011;32083;47.360;9.650;2023-12-20T15:03:57;4.25;;;2.05;;
46377;SDS011;32083;47.360;9.650;2023-12-20T15:06:23;4.22;;;2.47;;
46377;SDS011;32083;47.360;9.650;2023-12-20T15:08:50;2.88;;;1.45;;
46377;SDS011;32083;47.360;9.650;2023-12-20T15:11:17;2.55;;;1.55;;
46377;SDS011;32083;47.360;9.650;2023-12-20T15:13:43;1.88;;;1.40;;
46377;SDS011;32083;47.360;9.650;2023-12-20T15:16:09;6.82;;;5.75;;
46377;SDS011;32083;47.360;9.650;2023-12-20T15:18:35;4.93;;;2.20;;
46377;SDS011;32083;47.360;9.650;2023-12-20T15:21:01;1.45;;;1.23;;
46377;SDS011;32083;47.360;9.650;2023-12-20T15:23:27;2.40;;;1.20;;
46377;SDS011;32083;47.360;9.650;2023-12-20T15:25:55;1.83;;;1.65;;
46377;SDS011;32083;47.360;9.650;2023-12-20T15:28:21;3.05;;;2.30;;
46377;SDS011;32083;47.360;9.650;2023-12-20T15:30:47;6.72;;;3.75;;
46377;SDS011;32083;47.360;9.650;2023-12-20T15:33:13;4.28;;;2.70;;
46377;SDS011;32083;47.360;9.650;2023-12-20T15:35:39;11.05;;;1.67;;
46377;SDS011;32083;47.360;9.650;2023-12-20T15:38:04;1.50;;;1.02;;
46377;SDS011;32083;47.360;9.650;2023-12-20T15:40:30;1.70;;;1.23;;
46377;SDS011;32083;47.360;9.650;2023-12-20T15:42:56;1.80;;;0.80;;
46377;SDS011;32083;47.360;9.650;2023-12-20T15:45:24;2.35;;;1.20;;
46377;SDS011;32083;47.360;9.650;2023-12-20T15:47:50;2.03;;;1.42;;
46377;SDS011;32083;47.360;9.650;2023-12-20T15:50:16;2.95;;;1.58;;
46377;SDS011;32083;47.360;9.650;2023-12-20T15:52:42;1.35;;;1.00;;
46377;SDS011;32083;47.360;9.650;2023-12-20T15:55:08;2.70;;;1.63;;
46377;SDS011;32083;47.360;9.650;2023-12-20T15:57:34;1.95;;;1.17;;
46377;SDS011;32083;47.360;9.650;2023-12-20T16:00:00;2.22;;;1.30;;
46377;SDS011;32083;47.360;9.650;2023-12-20T16:02:26;1.40;;;1.00;;
46377;SDS011;32083;47.360;9.650;2023-12-20T16:04:51;2.50;;;1.20;;
46377;SDS011;32083;47.360;9.650;2023-12-20T16:07:17;2.67;;;1.20;;
46377;SDS011;32083;47.360;9.650;2023-12-20T16:09:44;1.13;;;0.82;;
46377;SDS011;32083;47.360;9.650;2023-12-20T16:12:10;2.70;;;1.40;;
46377;SDS011;32083;47.360;9.650;2023-12-20T16:14:35;2.28;;;1.40;;
46377;SDS011;32083;47.360;9.650;2023-12-20T16:17:01;1.63;;;1.00;;
46377;SDS011;32083;47.360;9.650;2023-12-20T16:19:27;1.27;;;1.17;;
46377;SDS011;32083;47.360;9.650;2023-12-20T16:21:53;4.35;;;2.33;;
46377;SDS011;32083;47.360;9.650;2023-12-20T16:24:19;3.10;;;2.17;;
46377;SDS011;32083;47.360;9.650;2023-12-20T16:26:45;5.18;;;2.15;;
46377;SDS011;32083;47.360;9.650;2023-12-20T16:29:11;3.55;;;2.33;;
46377;SDS011;32083;47.360;9.650;2023-12-20T16:31:38;5.05;;;1.90;;
46377;SDS011;32083;47.360;9.650;2023-12-20T16:34:04;3.85;;;2.72;;
46377;SDS011;32083;47.360;9.650;2023-12-20T16:36:47;4.63;;;2.92;;
46377;SDS011;32083;47.360;9.650;2023-12-20T16:39:26;2.90;;;1.63;;
46377;SDS011;32083;47.360;9.650;2023-12-20T16:52:33;4.22;;;2.40;;
46377;SDS011;32083;47.360;9.650;2023-12-20T16:57:45;7.35;;;3.33;;
46377;SDS011;32083;47.360;9.650;2023-12-20T17:00:11;7.93;;;5.05;;
46377;SDS011;32083;47.360;9.650;2023-12-20T17:02:41;6.43;;;4.50;;
46377;SDS011;32083;47.360;9.650;2023-12-20T17:05:07;4.90;;;3.63;;
46377;SDS011;32083;47.360;9.650;2023-12-20T17:07:34;4.43;;;3.00;;
46377;SDS011;32083;47.360;9.650;2023-12-20T17:10:00;4.15;;;3.33;;
46377;SDS011;32083;47.360;9.650;2023-12-20T17:12:31;4.15;;;3.40;;
46377;SDS011;32083;47.360;9.650;2023-12-20T17:14:57;5.85;;;4.10;;
46377;SDS011;32083;47.360;9.650;2023-12-20T17:17:25;5.97;;;4.07;;
46377;SDS011;32083;47.360;9.650;2023-12-20T17:19:52;4.97;;;3.70;;
46377;SDS011;32083;47.360;9.650;2023-12-20T17:22:18;7.78;;;3.55;;
46377;SDS011;32083;47.360;9.650;2023-12-20T17:24:45;5.35;;;3.90;;
46377;SDS011;32083;47.360;9.650;2023-12-20T17:27:12;3.55;;;2.72;;
46377;SDS011;32083;47.360;9.650;2023-12-20T17:29:38;4.38;;;3.60;;
46377;SDS011;32083;47.360;9.650;2023-12-20T17:32:04;5.47;;;4.18;;
46377;SDS011;32083;47.360;9.650;2023-12-20T17:34:30;7.32;;;3.40;;
46377;SDS011;32083;47.360;9.650;2023-12-20T17:36:56;3.90;;;3.25;;
46377;SDS011;32083;47.360;9.650;2023-12-20T17:39:22;3.55;;;2.10;;
46377;SDS011;32083;47.360;9.650;2023-12-20T17:41:48;4.13;;;1.40;;
46377;SDS011;32083;47.360;9.650;2023-12-20T17:44:14;3.63;;;1.10;;
46377;SDS011;32083;47.360;9.650;2023-12-20T17:46:41;2.63;;;1.40;;
46377;SDS011;32083;47.360;9.650;2023-12-20T17:49:08;1.67;;;1.08;;
46377;SDS011;32083;47.360;9.650;2023-12-20T17:51:33;2.08;;;1.20;;
46377;SDS011;32083;47.360;9.650;2023-12-20T17:53:59;4.45;;;1.30;;
46377;SDS011;32083;47.360;9.650;2023-12-20T17:56:28;4.03;;;1.20;;
46377;SDS011;32083;47.360;9.650;2023-12-20T17:58:57;2.47;;;1.05;;
46377;SDS011;32083;47.360;9.650;2023-12-20T18:01:23;6.75;;;1.38;;
46377;SDS011;32083;47.360;9.650;2023-12-20T18:03:49;4.97;;;1.15;;
46377;SDS011;32083;47.360;9.650;2023-12-20T18:06:15;2.28;;;1.10;;
46377;SDS011;32083;47.360;9.650;2023-12-20T18:08:41;1.65;;;0.98;;
46377;SDS011;32083;47.360;9.650;2023-12-20T18:11:07;2.35;;;1.17;;
46377;SDS011;32083;47.360;9.650;2023-12-20T18:13:33;1.95;;;1.33;;
46377;SDS011;32083;47.360;9.650;2023-12-20T18:15:59;3.28;;;1.80;;
46377;SDS011;32083;47.360;9.650;2023-12-20T18:18:25;2.80;;;1.25;;
46377;SDS011;32083;47.360;9.650;2023-12-20T18:20:51;4.15;;;1.35;;
46377;SDS011;32083;47.360;9.650;2023-12-20T18:23:19;2.60;;;1.25;;
46377;SDS011;32083;47.360;9.650;2023-12-20T18:25:45;3.33;;;1.35;;
46377;SDS011;32083;47.360;9.650;2023-12-20T18:28:12;4.05;;;2.30;;
46377;SDS011;32083;47.360;9.650;2023-12-20T18:30:38;2.58;;;1.92;;
46377;SDS011;32083;47.360;9.650;2023-12-20T18:33:04;5.82;;;1.75;;
46377;SDS011;32083;47.360;9.650;2023-12-20T18:35:30;3.90;;;1.88;;
46377;SDS011;32083;47.360;9.650;2023-12-20T18:37:58;3.17;;;1.98;;
46377;SDS011;32083;47.360;9.650;2023-12-20T18:40:24;4.00;;;2.40;;
46377;SDS011;32083;47.360;9.650;2023-12-20T18:42:52;5.28;;;2.17;;
46377;SDS011;32083;47.360;9.650;2023-12-20T18:45:18;4.68;;;2.10;;
46377;SDS011;32083;47.360;9.650;2023-12-20T18:47:44;4.00;;;2.00;;
46377;SDS011;32083;47.360;9.650;2023-12-20T18:50:10;2.38;;;1.30;;
46377;SDS011;32083;47.360;9.650;2023-12-20T18:52:36;4.40;;;1.30;;
46377;SDS011;32083;47.360;9.650;2023-12-20T18:55:02;3.88;;;1.65;;
46377;SDS011;32083;47.360;9.650;2023-12-20T18:57:29;3.10;;;1.80;;
46377;SDS011;32083;47.360;9.650;2023-12-20T18:59:55;3.88;;;1.65;;
46377;SDS011;32083;47.360;9.650;2023-12-20T19:02:23;3.35;;;2.00;;
46377;SDS011;32083;47.360;9.650;2023-12-20T19:04:49;3.70;;;1.67;;
46377;SDS011;32083;47.360;9.650;2023-12-20T19:07:15;3.47;;;2.53;;
46377;SDS011;32083;47.360;9.650;2023-12-20T19:09:41;5.35;;;1.77;;
46377;SDS011;32083;47.360;9.650;2023-12-20T19:12:07;3.08;;;1.27;;
46377;SDS011;32083;47.360;9.650;2023-12-20T19:14:33;2.63;;;1.10;;
46377;SDS011;32083;47.360;9.650;2023-12-20T19:16:59;2.35;;;1.17;;
46377;SDS011;32083;47.360;9.650;2023-12-20T19:19:26;2.00;;;1.30;;
46377;SDS011;32083;47.360;9.650;2023-12-20T19:21:53;2.17;;;1.38;;
46377;SDS011;32083;47.360;9.650;2023-12-20T19:24:19;2.38;;;1.25;;
46377;SDS011;32083;47.360;9.650;2023-12-20T19:26:46;2.75;;;1.73;;
46377;SDS011;32083;47.360;9.650;2023-12-20T19:29:12;3.03;;;1.50;;
46377;SDS011;32083;47.360;9.650;2023-12-20T19:31:38;2.35;;;1.50;;
46377;SDS011;32083;47.360;9.650;2023-12-20T19:34:05;2.38;;;1.83;;
46377;SDS011;32083;47.360;9.650;2023-12-20T19:36:31;4.85;;;2.08;;
46377;SDS011;32083;47.360;9.650;2023-12-20T19:38:57;6.82;;;2.50;;
46377;SDS011;32083;47.360;9.650;2023-12-20T19:41:24;6.28;;;2.42;;
46377;SDS011;32083;47.360;9.650;2023-12-20T19:43:50;6.85;;;3.20;;
46377;SDS011;32083;47.360;9.650;2023-12-20T19:46:17;9.13;;;6.35;;
46377;SDS011;32083;47.360;9.650;2023-12-20T19:48:43;5.97;;;3.88;;
46377;SDS011;32083;47.360;9.650;2023-12-20T19:51:10;3.03;;;2.22;;
46377;SDS011;32083;47.360;9.650;2023-12-20T19:53:39;3.40;;;2.08;;
46377;SDS011;32083;47.360;9.650;2023-12-20T19:56:06;5.70;;;2.25;;
46377;SDS011;32083;47.360;9.650;2023-12-20T19:58:32;3.38;;;2.47;;
46377;SDS011;32083;47.360;9.650;2023-12-20T20:00:58;4.68;;;2.65;;
46377;SDS011;32083;47.360;9.650;2023-12-20T20:03:24;3.38;;;1.80;;
46377;SDS011;32083;47.360;9.650;2023-12-20T20:05:50;4.72;;;1.92;;
46377;SDS011;32083;47.360;9.650;2023-12-20T20:08:16;4.68;;;1.92;;
46377;SDS011;32083;47.360;9.650;2023-12-20T20:10:42;2.75;;;1.85;;